createdAt,value
2023-05-25T00:00:00.269Z,102606.56
2023-05-25T00:02:29.688Z,102620.41
2023-05-25T00:04:58.429Z,102626.81
2023-05-25T00:07:26.206Z,102616.81
2023-05-25T00:09:53.962Z,102615.38
2023-05-25T00:12:22.034Z,102616.34
2023-05-25T00:14:49.919Z,102618.53
2023-05-25T00:17:18.898Z,102617.09
2023-05-25T00:19:48.259Z,102621.28
2023-05-25T00:22:16.054Z,102623.53
2023-05-25T00:24:43.809Z,102626.38
2023-05-25T00:27:11.647Z,102627.34
2023-05-25T00:29:39.462Z,102625.47
2023-05-25T00:32:07.965Z,102624.50
2023-05-25T00:34:36.298Z,102628.84
2023-05-25T00:37:05.981Z,102629.63
2023-05-25T00:39:33.975Z,102634.09
2023-05-25T00:42:03.708Z,102615.38
2023-05-25T00:44:32.153Z,102624.84
2023-05-25T00:47:01.493Z,102624.00
2023-05-25T00:49:31.048Z,102625.94
2023-05-25T00:51:59.049Z,102612.28
2023-05-25T00:57:52.992Z,102634.94
2023-05-25T01:00:21.460Z,102629.72
2023-05-25T01:02:52.872Z,102636.13
2023-05-25T01:05:23.042Z,102637.88
2023-05-25T01:07:54.150Z,102641.56
2023-05-25T01:10:23.862Z,102640.03
2023-05-25T01:12:54.493Z,102642.63
2023-05-25T01:15:22.469Z,102639.13
2023-05-25T01:17:54.192Z,102641.97
2023-05-25T01:20:22.112Z,102638.34
2023-05-25T01:22:58.420Z,102637.69
2023-05-25T01:25:32.668Z,102634.88
2023-05-25T01:28:05.215Z,102639.53
2023-05-25T01:30:34.082Z,102642.38
2023-05-25T01:33:02.975Z,102652.38
2023-05-25T01:35:31.079Z,102648.78
2023-05-25T01:38:00.509Z,102660.53
2023-05-25T01:40:28.494Z,102663.25
2023-05-25T01:42:56.354Z,102654.34
2023-05-25T01:45:24.665Z,102664.13
2023-05-25T01:48:01.004Z,102660.63
2023-05-25T01:50:35.181Z,102663.59
2023-05-25T01:53:07.378Z,102667.16
2023-05-25T01:55:40.434Z,102665.22
2023-05-25T01:58:10.448Z,102668.81
2023-05-25T02:00:40.416Z,102670.31
2023-05-25T02:03:10.145Z,102670.25
2023-05-25T02:05:38.931Z,102669.47
2023-05-25T02:08:08.076Z,102665.88
2023-05-25T02:10:35.873Z,102668.69
2023-05-25T02:13:03.723Z,102672.41
2023-05-25T02:15:33.150Z,102663.66
2023-05-25T02:18:01.544Z,102662.50
2023-05-25T02:20:29.727Z,102670.56
2023-05-25T02:22:57.511Z,102666.97
2023-05-25T02:25:26.679Z,102665.22
2023-05-25T02:27:54.894Z,102661.53
2023-05-25T02:30:22.784Z,102665.22
2023-05-25T02:32:50.892Z,102675.13
2023-05-25T02:35:18.818Z,102671.75
2023-05-25T02:37:48.461Z,102669.88
2023-05-25T02:40:18.884Z,102671.81
2023-05-25T02:42:48.014Z,102664.63
2023-05-25T02:45:15.842Z,102660.19
2023-05-25T02:47:43.758Z,102671.94
2023-05-25T02:50:12.142Z,102660.38
2023-05-25T02:52:39.952Z,102668.94
2023-05-25T02:55:10.340Z,102675.25
2023-05-25T02:57:38.949Z,102681.09
2023-05-25T03:00:11.188Z,102680.81
2023-05-25T03:02:38.952Z,102683.53
2023-05-25T03:05:07.572Z,102678.50
2023-05-25T03:07:35.748Z,102689.59
2023-05-25T03:10:03.610Z,102685.25
2023-05-25T03:12:31.368Z,102687.16
2023-05-25T03:14:59.169Z,102681.84
2023-05-25T03:17:28.356Z,102689.03
2023-05-25T03:19:56.216Z,102686.22
2023-05-25T03:22:24.117Z,102695.03
2023-05-25T03:24:51.881Z,102691.34
2023-05-25T03:27:19.703Z,102696.69
2023-05-25T03:29:50.096Z,102693.19
2023-05-25T03:32:18.130Z,102699.50
2023-05-25T03:34:47.265Z,102691.06
2023-05-25T03:37:15.067Z,102698.72
2023-05-25T03:39:42.984Z,102711.25
2023-05-25T03:42:10.907Z,102703.97
2023-05-25T03:44:40.497Z,102697.53
2023-05-25T03:47:09.093Z,102700.19
2023-05-25T03:49:36.985Z,102697.47
2023-05-25T03:52:07.222Z,102702.13
2023-05-25T03:54:35.167Z,102683.66
2023-05-25T03:57:03.784Z,102699.56
2023-05-25T03:59:32.283Z,102697.06
2023-05-25T04:02:00.158Z,102703.97
2023-05-25T04:04:30.051Z,102698.53
2023-05-25T04:06:57.926Z,102705.69
2023-05-25T04:09:27.169Z,102710.38
2023-05-25T04:11:54.982Z,102711.06
2023-05-25T04:14:22.849Z,102708.34
2023-05-25T04:16:50.987Z,102716.56
2023-05-25T04:19:19.410Z,102717.47
2023-05-25T04:21:47.169Z,102720.19
2023-05-25T04:24:15.004Z,102709.59
2023-05-25T04:26:46.199Z,102728.44
2023-05-25T04:29:14.270Z,102723.97
2023-05-25T04:31:43.492Z,102733.28
2023-05-25T04:34:11.302Z,102736.88
2023-05-25T04:36:43.082Z,102734.34
2023-05-25T04:39:10.957Z,102742.44
2023-05-25T04:41:39.316Z,102746.13
2023-05-25T04:44:10.379Z,102750.66
2023-05-25T04:46:39.161Z,102743.47
2023-05-25T04:49:08.582Z,102737.34
2023-05-25T04:51:37.230Z,102744.47
2023-05-25T04:54:05.570Z,102744.34
2023-05-25T04:56:33.479Z,102746.97
2023-05-25T04:59:01.450Z,102749.59
2023-05-25T05:01:34.321Z,102750.19
2023-05-25T05:04:02.258Z,102754.84
2023-05-25T05:06:30.088Z,102748.34
2023-05-25T05:08:57.868Z,102752.97
2023-05-25T05:11:25.747Z,102754.72
2023-05-25T05:13:53.497Z,102761.06
2023-05-25T05:16:21.436Z,102760.84
2023-05-25T05:18:50.636Z,102767.34
2023-05-25T05:21:18.853Z,102771.63
2023-05-25T05:23:47.700Z,102764.72
2023-05-25T05:26:15.584Z,102772.41
2023-05-25T05:28:43.549Z,102777.34
2023-05-25T05:31:12.198Z,102781.31
2023-05-25T05:33:40.529Z,102769.16
2023-05-25T05:36:10.137Z,102778.56
2023-05-25T05:38:39.962Z,102764.91
2023-05-25T05:41:13.421Z,102775.66
2023-05-25T05:43:42.438Z,102778.03
2023-05-25T05:46:10.766Z,102781.81
2023-05-25T05:48:39.115Z,102786.16
2023-05-25T05:51:07.321Z,102788.28
2023-05-25T05:53:36.537Z,102788.31
2023-05-25T05:56:04.504Z,102782.16
2023-05-25T05:58:32.511Z,102793.84
2023-05-25T06:01:01.485Z,102791.06
2023-05-25T06:03:29.732Z,102798.50
2023-05-25T06:05:57.714Z,102793.84
2023-05-25T06:08:26.112Z,102802.56
2023-05-25T06:10:56.064Z,102798.09
2023-05-25T06:13:23.889Z,102802.00
2023-05-25T06:15:51.656Z,102802.22
2023-05-25T06:18:19.406Z,102803.53
2023-05-25T06:20:47.286Z,102810.94
2023-05-25T06:23:15.185Z,102813.88
2023-05-25T06:25:43.140Z,102822.41
2023-05-25T06:28:12.421Z,102808.38
2023-05-25T06:30:40.258Z,102813.81
2023-05-25T06:33:08.669Z,102822.41
2023-05-25T06:35:36.535Z,102815.19
2023-05-25T06:38:04.342Z,102813.78
2023-05-25T06:40:32.338Z,102810.06
2023-05-25T06:43:00.167Z,102817.34
2023-05-25T06:45:29.367Z,102810.75
2023-05-25T06:47:57.481Z,102817.25
2023-05-25T06:50:25.343Z,102816.44
2023-05-25T06:52:53.210Z,102825.91
2023-05-25T06:55:21.019Z,102820.97
2023-05-25T06:57:48.788Z,102823.97
2023-05-25T07:00:39.504Z,102833.31
2023-05-25T07:03:07.276Z,102832.78
2023-05-25T07:05:35.098Z,102835.03
2023-05-25T07:08:02.870Z,102843.09
2023-05-25T07:10:30.718Z,102841.50
2023-05-25T07:12:58.535Z,102845.13
2023-05-25T07:15:26.471Z,102844.03
2023-05-25T07:17:57.219Z,102855.25
2023-05-25T07:20:25.296Z,102854.50
2023-05-25T07:22:53.769Z,102855.03
2023-05-25T07:25:21.587Z,102855.16
2023-05-25T07:27:50.277Z,102849.56
2023-05-25T07:30:18.213Z,102859.38
2023-05-25T07:32:46.466Z,102859.38
2023-05-25T07:35:15.824Z,102857.66
2023-05-25T07:37:43.657Z,102858.50
2023-05-25T07:40:12.169Z,102857.78
2023-05-25T07:42:40.582Z,102863.75
2023-05-25T07:45:09.180Z,102863.84
2023-05-25T07:47:37.145Z,102867.47
2023-05-25T07:50:09.921Z,102862.50
2023-05-25T07:52:39.379Z,102868.72
2023-05-25T07:55:08.215Z,102874.19
2023-05-25T07:57:36.309Z,102876.28
2023-05-25T08:00:06.388Z,102871.56
2023-05-25T08:02:34.307Z,102879.56
2023-05-25T08:05:06.033Z,102877.19
2023-05-25T08:07:34.159Z,102878.19
2023-05-25T08:10:07.092Z,102884.25
2023-05-25T08:12:47.764Z,102884.66
2023-05-25T08:15:16.571Z,102878.78
2023-05-25T08:17:44.940Z,102880.91
2023-05-25T08:20:13.626Z,102885.53
2023-05-25T08:22:41.649Z,102886.59
2023-05-25T08:25:11.280Z,102890.84
2023-05-25T08:27:39.289Z,102886.44
2023-05-25T08:30:08.369Z,102888.28
2023-05-25T08:32:36.268Z,102895.28
2023-05-25T08:35:04.689Z,102895.38
2023-05-25T08:37:33.372Z,102886.00
2023-05-25T08:40:02.718Z,102894.50
2023-05-25T08:42:31.971Z,102902.13
2023-05-25T08:44:59.956Z,102897.56
2023-05-25T08:47:32.586Z,102893.06
2023-05-25T08:50:04.098Z,102898.13
2023-05-25T08:52:35.192Z,102896.91
2023-05-25T08:55:06.381Z,102894.03
2023-05-25T08:57:47.134Z,102893.63
2023-05-25T09:00:16.811Z,102891.75
2023-05-25T09:02:51.785Z,102903.09
2023-05-25T09:05:20.242Z,102891.13
2023-05-25T09:07:49.903Z,102901.19
2023-05-25T09:10:21.876Z,102904.31
2023-05-25T09:12:52.541Z,102907.94
2023-05-25T09:15:20.483Z,102896.00
2023-05-25T09:17:48.536Z,102906.72
2023-05-25T09:20:17.357Z,102903.69
2023-05-25T09:22:45.718Z,102900.84
2023-05-25T09:25:18.395Z,102903.38
2023-05-25T09:27:46.935Z,102907.75
2023-05-25T09:30:17.132Z,102899.72
2023-05-25T09:32:47.585Z,102898.53
2023-05-25T09:35:16.363Z,102902.22
2023-05-25T09:37:45.267Z,102897.84
2023-05-25T09:40:14.810Z,102892.81
2023-05-25T09:42:44.157Z,102907.06
2023-05-25T09:45:11.984Z,102893.50
2023-05-25T09:47:41.722Z,102905.91
2023-05-25T09:50:10.867Z,102897.75
2023-05-25T09:52:38.971Z,102903.16
2023-05-25T09:55:10.542Z,102892.72
2023-05-25T09:57:38.474Z,102900.50
2023-05-25T10:00:08.793Z,102904.31
2023-05-25T10:02:37.260Z,102895.88
2023-05-25T10:05:07.516Z,102899.47
2023-05-25T10:07:36.001Z,102914.81
2023-05-25T10:10:08.433Z,102894.66
2023-05-25T10:12:36.644Z,102901.41
2023-05-25T10:15:05.340Z,102904.31
2023-05-25T10:17:37.289Z,102896.75
2023-05-25T10:20:09.936Z,102899.19
2023-05-25T10:22:41.928Z,102895.19
2023-05-25T10:25:14.969Z,102897.13
2023-05-25T10:27:45.546Z,102895.53
2023-05-25T10:30:16.073Z,102892.84
2023-05-25T10:32:47.916Z,102885.06
2023-05-25T10:35:18.754Z,102892.31
2023-05-25T10:37:47.198Z,102890.44
2023-05-25T10:40:15.597Z,102891.00
2023-05-25T10:42:44.139Z,102900.00
2023-05-25T10:45:12.560Z,102901.16
2023-05-25T10:47:43.146Z,102897.97
2023-05-25T10:50:23.083Z,102895.22
2023-05-25T10:53:01.638Z,102899.59
2023-05-25T10:55:32.436Z,102901.25
2023-05-25T10:58:10.814Z,102890.44
2023-05-25T11:00:39.615Z,102902.69
2023-05-25T11:03:08.531Z,102895.44
2023-05-25T11:05:41.202Z,102888.41
2023-05-25T11:08:10.108Z,102897.66
2023-05-25T11:10:59.774Z,102908.09
2023-05-25T11:13:40.872Z,102903.47
2023-05-25T11:16:20.650Z,102893.06
2023-05-25T11:18:53.231Z,102886.66
2023-05-25T11:21:43.709Z,102893.59
2023-05-25T11:24:16.804Z,102891.31
2023-05-25T11:26:58.234Z,102905.34
2023-05-25T11:29:27.198Z,102897.66
2023-05-25T11:31:56.602Z,102887.50
2023-05-25T11:34:25.820Z,102890.72
2023-05-25T11:37:01.678Z,102892.53
2023-05-25T11:39:30.375Z,102892.13
2023-05-25T11:42:03.904Z,102884.28
2023-05-25T11:44:33.544Z,102886.47
2023-05-25T11:47:06.054Z,102884.78
2023-05-25T11:49:36.184Z,102879.22
2023-05-25T11:52:07.936Z,102876.50
2023-05-25T11:54:36.518Z,102872.84
2023-05-25T11:57:04.858Z,102875.59
2023-05-25T11:59:33.558Z,102873.75
2023-05-25T12:02:03.391Z,102869.97
2023-05-25T12:04:33.147Z,102871.56
2023-05-25T12:07:04.599Z,102874.75
2023-05-25T12:09:36.764Z,102877.63
2023-05-25T12:12:05.680Z,102872.13
2023-05-25T12:14:36.158Z,102868.38
2023-05-25T12:17:04.384Z,102868.69
2023-05-25T12:19:32.830Z,102869.84
2023-05-25T12:22:00.759Z,102881.97
2023-05-25T12:24:28.696Z,102886.66
2023-05-25T12:26:59.201Z,102880.88
2023-05-25T12:29:27.205Z,102872.34
2023-05-25T12:32:02.702Z,102878.72
2023-05-25T12:34:30.539Z,102877.13
2023-05-25T12:36:58.458Z,102871.53
2023-05-25T12:39:39.023Z,102874.38
2023-05-25T12:42:15.286Z,102864.78
2023-05-25T12:44:44.254Z,102873.56
2023-05-25T12:47:14.532Z,102873.88
2023-05-25T12:49:43.393Z,102872.19
2023-05-25T12:52:12.864Z,102877.59
2023-05-25T12:54:44.122Z,102879.34
2023-05-25T12:57:14.667Z,102878.38
2023-05-25T12:59:44.558Z,102868.97
2023-05-25T13:02:13.774Z,102866.69
2023-05-25T13:04:44.755Z,102858.59
2023-05-25T13:07:12.730Z,102865.81
2023-05-25T13:09:40.571Z,102862.59
2023-05-25T13:12:12.608Z,102865.50
2023-05-25T13:14:41.857Z,102860.00
2023-05-25T13:17:09.648Z,102867.53
2023-05-25T13:19:37.566Z,102847.13
2023-05-25T13:22:05.627Z,102854.19
2023-05-25T13:24:33.585Z,102848.59
2023-05-25T13:27:01.463Z,102849.28
2023-05-25T13:29:29.222Z,102854.25
2023-05-25T13:31:58.474Z,102854.06
2023-05-25T13:34:26.255Z,102849.28
2023-05-25T13:36:54.044Z,102847.50
2023-05-25T13:39:22.712Z,102849.19
2023-05-25T13:41:50.477Z,102846.31
2023-05-25T13:44:18.288Z,102845.38
2023-05-25T13:46:46.772Z,102845.34
2023-05-25T13:49:16.405Z,102840.69
2023-05-25T13:51:44.251Z,102840.00
2023-05-25T13:54:12.938Z,102841.03
2023-05-25T13:56:42.410Z,102846.25
2023-05-25T13:59:10.301Z,102850.88
2023-05-25T14:01:38.168Z,102846.72
2023-05-25T14:04:06.049Z,102841.78
2023-05-25T14:06:35.898Z,102844.69
2023-05-25T14:09:03.766Z,102836.28
2023-05-25T14:11:31.583Z,102842.38
2023-05-25T14:13:59.432Z,102837.47
2023-05-25T14:16:27.411Z,102843.09
2023-05-25T14:18:56.451Z,102842.06
2023-05-25T14:21:24.210Z,102847.88
2023-05-25T14:24:00.846Z,102841.50
2023-05-25T14:26:28.790Z,102840.03
2023-05-25T14:28:56.617Z,102844.25
2023-05-25T14:31:24.403Z,102836.72
2023-05-25T14:34:15.237Z,102842.94
2023-05-25T14:36:47.042Z,102840.88
2023-05-25T14:39:18.648Z,102844.03
2023-05-25T14:41:46.429Z,102852.59
2023-05-25T14:44:14.212Z,102845.75
2023-05-25T14:46:42.075Z,102851.53
2023-05-25T14:49:09.953Z,102847.47
2023-05-25T14:51:38.112Z,102841.13
2023-05-25T14:54:07.948Z,102835.84
2023-05-25T14:56:37.236Z,102834.25
2023-05-25T14:59:05.125Z,102835.41
2023-05-25T15:01:32.976Z,102831.78
2023-05-25T15:04:00.883Z,102828.63
2023-05-25T15:06:28.787Z,102834.53
2023-05-25T15:08:56.612Z,102836.41
2023-05-25T15:11:24.453Z,102820.94
2023-05-25T15:13:53.954Z,102840.03
2023-05-25T15:16:21.827Z,102830.63
2023-05-25T15:18:50.974Z,102827.25
2023-05-25T15:21:19.052Z,102824.78
2023-05-25T15:23:46.891Z,102826.22
2023-05-25T15:26:14.787Z,102830.50
2023-05-25T15:28:42.648Z,102826.47
2023-05-25T15:31:11.888Z,102835.72
2023-05-25T15:33:51.973Z,102838.75
2023-05-25T15:36:24.376Z,102824.13
2023-05-25T15:38:52.280Z,102826.25
2023-05-25T15:41:20.076Z,102826.13
2023-05-25T15:43:52.287Z,102825.31
2023-05-25T15:46:21.660Z,102828.63
2023-05-25T15:48:49.520Z,102820.66
2023-05-25T15:51:17.320Z,102818.75
2023-05-25T15:53:45.151Z,102814.28
2023-05-25T15:56:12.935Z,102819.19
2023-05-25T15:58:40.970Z,102820.59
2023-05-25T16:01:09.439Z,102824.94
2023-05-25T16:03:39.320Z,102829.69
2023-05-25T16:06:07.993Z,102829.56
2023-05-25T16:08:35.785Z,102822.47
2023-05-25T16:11:03.608Z,102831.22
2023-05-25T16:13:31.493Z,102829.47
2023-05-25T16:15:59.338Z,102826.91
2023-05-25T16:18:27.112Z,102830.53
2023-05-25T16:20:57.878Z,102830.91
2023-05-25T16:23:26.057Z,102831.22
2023-05-25T16:25:53.806Z,102830.72
2023-05-25T16:28:21.594Z,102832.09
2023-05-25T16:30:49.353Z,102825.88
2023-05-25T16:33:17.219Z,102823.44
2023-05-25T16:35:47.151Z,102821.06
2023-05-25T16:38:16.611Z,102825.19
2023-05-25T16:40:44.406Z,102828.94
2023-05-25T16:43:12.397Z,102818.81
2023-05-25T16:45:40.318Z,102829.38
2023-05-25T16:48:08.133Z,102837.59
2023-05-25T16:50:35.964Z,102831.50
2023-05-25T16:53:03.767Z,102818.59
2023-05-25T16:55:33.691Z,102823.97
2023-05-25T16:58:01.469Z,102824.50
2023-05-25T17:00:29.247Z,102826.09
2023-05-25T17:02:57.183Z,102828.59
2023-05-25T17:05:25.128Z,102824.75
2023-05-25T17:07:52.966Z,102821.53
2023-05-25T17:10:20.766Z,102820.72
2023-05-25T17:12:49.959Z,102828.88
2023-05-25T17:15:17.810Z,102831.81
2023-05-25T17:17:45.758Z,102828.06
2023-05-25T17:20:13.553Z,102829.41
2023-05-25T17:22:42.453Z,102838.06
2023-05-25T17:25:10.627Z,102831.91
2023-05-25T17:27:38.445Z,102835.25
2023-05-25T17:30:09.254Z,102830.84
2023-05-25T17:32:38.405Z,102827.34
2023-05-25T17:35:06.861Z,102835.03
2023-05-25T17:37:34.811Z,102834.44
2023-05-25T17:40:02.635Z,102839.31
2023-05-25T17:42:30.422Z,102838.63
2023-05-25T17:44:58.177Z,102838.03
2023-05-25T17:47:27.498Z,102846.13
2023-05-25T17:49:56.002Z,102842.97
2023-05-25T17:52:23.823Z,102840.41
2023-05-25T17:54:51.657Z,102840.38
2023-05-25T17:57:19.433Z,102844.69
2023-05-25T17:59:47.234Z,102852.50
2023-05-25T18:02:15.172Z,102845.72
2023-05-25T18:04:44.540Z,102854.25
2023-05-25T18:07:12.313Z,102852.78
2023-05-25T18:09:40.113Z,102855.00
2023-05-25T18:12:08.396Z,102851.28
2023-05-25T18:14:37.783Z,102854.78
2023-05-25T18:17:06.067Z,102856.03
2023-05-25T18:19:33.917Z,102850.53
2023-05-25T18:22:03.063Z,102849.56
2023-05-25T18:24:30.869Z,102851.91
2023-05-25T18:26:59.847Z,102847.03
2023-05-25T18:29:27.640Z,102847.38
2023-05-25T18:31:55.418Z,102845.69
2023-05-25T18:34:23.210Z,102857.22
2023-05-25T18:36:50.997Z,102852.22
2023-05-25T18:39:20.321Z,102856.13
2023-05-25T18:41:48.169Z,102853.97
2023-05-25T18:44:15.988Z,102859.75
2023-05-25T18:46:44.517Z,102851.28
2023-05-25T18:49:12.469Z,102854.34
2023-05-25T18:51:40.291Z,102855.19
2023-05-25T18:54:08.257Z,102861.53
2023-05-25T18:56:38.427Z,102862.03
2023-05-25T18:59:06.274Z,102855.63
2023-05-25T19:01:34.142Z,102854.78
2023-05-25T19:04:02.065Z,102852.91
2023-05-25T19:06:29.955Z,102857.59
2023-05-25T19:08:57.788Z,102852.63
2023-05-25T19:11:26.027Z,102857.66
2023-05-25T19:13:55.174Z,102861.03
2023-05-25T19:16:23.030Z,102864.97
2023-05-25T19:18:50.797Z,102868.31
2023-05-25T19:21:18.609Z,102869.34
2023-05-25T19:23:46.422Z,102875.91
2023-05-25T19:26:14.250Z,102875.81
2023-05-25T19:28:42.093Z,102885.34
2023-05-25T19:31:11.322Z,102876.03
2023-05-25T19:33:39.164Z,102884.03
2023-05-25T19:36:07.340Z,102879.22
2023-05-25T19:38:41.103Z,102881.31
2023-05-25T19:41:09.909Z,102888.09
2023-05-25T19:43:38.311Z,102890.44
2023-05-25T19:46:06.316Z,102895.56
2023-05-25T19:48:35.564Z,102894.66
2023-05-25T19:51:03.402Z,102879.63
2023-05-25T19:53:57.787Z,102890.03
2023-05-25T19:56:26.045Z,102897.66
2023-05-25T19:58:55.202Z,102900.50
2023-05-25T20:01:23.161Z,102904.44
2023-05-25T20:03:52.482Z,102915.25
2023-05-25T20:06:20.518Z,102913.63
2023-05-25T20:08:48.312Z,102913.84
2023-05-25T20:11:16.166Z,102925.63
2023-05-25T20:13:44.572Z,102911.78
2023-05-25T20:16:13.031Z,102911.97
2023-05-25T20:18:41.037Z,102913.50
2023-05-25T20:21:18.678Z,102909.69
2023-05-25T20:23:49.122Z,102911.88
2023-05-25T20:26:20.053Z,102915.69
2023-05-25T20:29:02.413Z,102909.50
2023-05-25T20:31:30.345Z,102912.53
2023-05-25T20:37:42.459Z,102895.94
2023-05-25T20:40:46.694Z,102926.28
2023-05-25T20:43:17.565Z,102912.22
2023-05-25T20:45:45.617Z,102917.75
2023-05-25T20:48:16.509Z,102924.75
2023-05-25T20:50:44.476Z,102928.88
2023-05-25T20:53:12.304Z,102931.81
2023-05-25T20:55:41.623Z,102928.34
2023-05-25T20:58:09.479Z,102933.00
2023-05-25T21:00:38.684Z,102939.56
2023-05-25T21:03:08.534Z,102947.38
2023-05-25T21:05:38.122Z,102945.94
2023-05-25T21:08:06.068Z,102950.63
2023-05-25T21:10:43.277Z,102950.75
2023-05-25T21:13:11.195Z,102948.63
2023-05-25T21:15:41.623Z,102948.63
2023-05-25T21:18:12.825Z,102956.81
2023-05-25T21:20:40.742Z,102957.66
2023-05-25T21:23:13.958Z,102945.25
2023-05-25T21:25:45.959Z,102950.81
2023-05-25T21:32:49.043Z,102935.00
2023-05-25T21:35:18.070Z,102956.28
2023-05-25T21:37:46.037Z,102960.00
2023-05-25T21:40:17.169Z,102944.72
2023-05-25T21:42:47.081Z,102955.03
2023-05-25T21:45:15.971Z,102951.75
2023-05-25T21:47:43.755Z,102949.78
2023-05-25T21:50:12.749Z,102948.22
2023-05-25T21:52:41.630Z,102950.41
2023-05-25T21:55:10.211Z,102949.34
2023-05-25T21:57:38.207Z,102955.66
2023-05-25T22:00:10.762Z,102957.69
2023-05-25T22:02:38.633Z,102962.09
2023-05-25T22:05:07.114Z,102964.31
2023-05-25T22:07:34.911Z,102965.78
2023-05-25T22:10:02.714Z,102967.16
2023-05-25T22:12:30.562Z,102967.44
2023-05-25T22:14:58.438Z,102961.31
2023-05-25T22:17:27.613Z,102967.66
2023-05-25T22:20:06.405Z,102962.28
2023-05-25T22:22:37.341Z,102963.47
2023-05-25T22:25:05.851Z,102956.50
2023-05-25T22:27:34.107Z,102961.16
2023-05-25T22:30:06.517Z,102959.50
2023-05-25T22:32:38.265Z,102968.81
2023-05-25T22:35:07.140Z,102972.03
2023-05-25T22:37:35.027Z,102971.56
2023-05-25T22:40:02.997Z,102967.94
2023-05-25T22:42:30.976Z,102969.00
2023-05-25T22:44:58.714Z,102975.63
2023-05-25T22:47:26.877Z,102974.72
2023-05-25T22:49:56.174Z,102976.31
2023-05-25T22:52:23.922Z,102963.25
2023-05-25T22:54:51.688Z,102967.91
2023-05-25T22:57:19.443Z,102979.00
2023-05-25T22:59:47.226Z,102968.72
2023-05-25T23:02:17.678Z,102973.84
2023-05-25T23:04:45.739Z,102978.88
2023-05-25T23:07:14.943Z,102972.25
2023-05-25T23:09:55.909Z,102970.34
2023-05-25T23:12:29.238Z,102970.50
2023-05-25T23:15:02.099Z,102972.38
2023-05-25T23:17:32.685Z,102969.03
2023-05-25T23:20:01.952Z,102973.19
2023-05-25T23:22:31.089Z,102969.69
2023-05-25T23:24:58.844Z,102971.34
2023-05-25T23:27:27.307Z,102971.34
2023-05-25T23:29:55.125Z,102968.31
2023-05-25T23:32:22.916Z,102972.16
2023-05-25T23:34:50.758Z,102980.63
2023-05-25T23:37:18.496Z,102975.19
2023-05-25T23:39:47.602Z,102986.22
2023-05-25T23:42:16.781Z,102985.25
2023-05-25T23:44:44.595Z,102995.16
2023-05-25T23:47:12.837Z,102993.22
2023-05-25T23:49:43.469Z,102987.78
2023-05-25T23:52:16.853Z,102982.19
2023-05-25T23:54:44.882Z,102985.75
2023-05-25T23:57:22.949Z,102982.34
2023-05-25T23:59:50.795Z,102979.03
